sensor_id;sensor_type;location;lat;lon;timestamp;P1;durP1;ratioP1;P2;durP2;ratioP2
25169;SDS011;13129;48.012;10.352;2023-04-15T03:30:34;3.53;;;2.50;;
25169;SDS011;13129;48.012;10.352;2023-04-15T03:33:00;3.00;;;2.35;;
25169;SDS011;13129;48.012;10.352;2023-04-15T03:35:26;3.33;;;2.70;;
25169;SDS011;13129;48.012;10.352;2023-04-15T03:37:51;3.55;;;2.45;;
25169;SDS011;13129;48.012;10.352;2023-04-15T03:40:17;3.35;;;2.38;;
25169;SDS011;13129;48.012;10.352;2023-04-15T03:42:43;4.00;;;2.72;;
25169;SDS011;13129;48.012;10.352;2023-04-15T03:45:09;4.55;;;2.42;;
25169;SDS011;13129;48.012;10.352;2023-04-15T03:47:35;7.00;;;2.70;;
25169;SDS011;13129;48.012;10.352;2023-04-15T03:50:00;3.00;;;2.67;;
25169;SDS011;13129;48.012;10.352;2023-04-15T03:52:26;3.65;;;3.35;;
25169;SDS011;13129;48.012;10.352;2023-04-15T03:54:51;3.90;;;2.85;;
25169;SDS011;13129;48.012;10.352;2023-04-15T03:57:17;3.83;;;2.75;;
25169;SDS011;13129;48.012;10.352;2023-04-15T03:59:43;4.10;;;2.70;;
25169;SDS011;13129;48.012;10.352;2023-04-15T04:02:08;5.80;;;3.05;;
25169;SDS011;13129;48.012;10.352;2023-04-15T04:04:34;2.97;;;2.47;;
25169;SDS011;13129;48.012;10.352;2023-04-15T04:06:59;3.55;;;2.28;;
25169;SDS011;13129;48.012;10.352;2023-04-15T04:09:25;5.00;;;2.58;;
25169;SDS011;13129;48.012;10.352;2023-04-15T04:11:51;4.05;;;2.60;;
25169;SDS011;13129;48.012;10.352;2023-04-15T04:14:17;5.15;;;2.95;;
25169;SDS011;13129;48.012;10.352;2023-04-15T04:16:43;6.38;;;2.70;;
25169;SDS011;13129;48.012;10.352;2023-04-15T04:19:09;4.40;;;2.33;;
25169;SDS011;13129;48.012;10.352;2023-04-15T04:21:34;9.70;;;2.63;;
25169;SDS011;13129;48.012;10.352;2023-04-15T04:24:21;5.00;;;2.58;;
25169;SDS011;13129;48.012;10.352;2023-04-15T04:26:46;3.47;;;2.35;;
25169;SDS011;13129;48.012;10.352;2023-04-15T04:29:12;3.55;;;2.22;;
25169;SDS011;13129;48.012;10.352;2023-04-15T04:31:38;6.47;;;2.45;;
25169;SDS011;13129;48.012;10.352;2023-04-15T04:34:03;6.00;;;2.28;;
25169;SDS011;13129;48.012;10.352;2023-04-15T04:36:29;5.03;;;2.17;;
25169;SDS011;13129;48.012;10.352;2023-04-15T04:38:54;7.68;;;2.40;;
25169;SDS011;13129;48.012;10.352;2023-04-15T04:41:21;8.23;;;2.30;;
25169;SDS011;13129;48.012;10.352;2023-04-15T04:43:46;2.85;;;2.60;;
25169;SDS011;13129;48.012;10.352;2023-04-15T04:46:13;3.08;;;2.78;;
25169;SDS011;13129;48.012;10.352;2023-04-15T04:48:38;7.60;;;2.58;;
25169;SDS011;13129;48.012;10.352;2023-04-15T04:51:04;3.40;;;3.10;;
25169;SDS011;13129;48.012;10.352;2023-04-15T04:53:30;3.05;;;2.25;;
25169;SDS011;13129;48.012;10.352;2023-04-15T04:55:57;4.25;;;2.17;;
25169;SDS011;13129;48.012;10.352;2023-04-15T04:58:23;2.63;;;2.30;;
25169;SDS011;13129;48.012;10.352;2023-04-15T05:00:49;8.13;;;4.95;;
25169;SDS011;13129;48.012;10.352;2023-04-15T05:03:16;6.55;;;5.10;;
25169;SDS011;13129;48.012;10.352;2023-04-15T05:05:41;6.75;;;4.70;;
25169;SDS011;13129;48.012;10.352;2023-04-15T05:08:07;4.35;;;2.83;;
25169;SDS011;13129;48.012;10.352;2023-04-15T05:10:33;17.95;;;12.18;;
25169;SDS011;13129;48.012;10.352;2023-04-15T05:12:59;25.80;;;15.85;;
25169;SDS011;13129;48.012;10.352;2023-04-15T05:15:24;43.97;;;27.00;;
25169;SDS011;13129;48.012;10.352;2023-04-15T05:17:50;36.45;;;22.40;;
25169;SDS011;13129;48.012;10.352;2023-04-15T05:20:16;130.63;;;77.80;;
25169;SDS011;13129;48.012;10.352;2023-04-15T05:22:42;85.13;;;48.70;;
25169;SDS011;13129;48.012;10.352;2023-04-15T05:25:07;85.53;;;48.30;;
25169;SDS011;13129;48.012;10.352;2023-04-15T05:27:34;51.20;;;31.88;;
25169;SDS011;13129;48.012;10.352;2023-04-15T05:30:00;15.30;;;9.98;;
25169;SDS011;13129;48.012;10.352;2023-04-15T05:32:26;7.40;;;4.90;;
25169;SDS011;13129;48.012;10.352;2023-04-15T05:34:52;4.35;;;3.53;;
25169;SDS011;13129;48.012;10.352;2023-04-15T05:37:17;4.13;;;2.92;;
25169;SDS011;13129;48.012;10.352;2023-04-15T05:39:45;4.80;;;3.28;;
25169;SDS011;13129;48.012;10.352;2023-04-15T05:42:10;3.15;;;2.30;;
25169;SDS011;13129;48.012;10.352;2023-04-15T05:44:36;3.45;;;2.80;;
25169;SDS011;13129;48.012;10.352;2023-04-15T05:47:02;3.10;;;1.98;;
25169;SDS011;13129;48.012;10.352;2023-04-15T05:49:28;4.00;;;2.70;;
25169;SDS011;13129;48.012;10.352;2023-04-15T05:51:54;3.85;;;2.13;;
25169;SDS011;13129;48.012;10.352;2023-04-15T05:54:19;4.38;;;3.75;;
25169;SDS011;13129;48.012;10.352;2023-04-15T05:56:47;3.13;;;2.35;;
25169;SDS011;13129;48.012;10.352;2023-04-15T05:59:12;3.22;;;1.90;;
25169;SDS011;13129;48.012;10.352;2023-04-15T06:01:38;3.45;;;1.95;;
25169;SDS011;13129;48.012;10.352;2023-04-15T06:04:04;2.50;;;1.88;;
25169;SDS011;13129;48.012;10.352;2023-04-15T06:06:29;2.53;;;1.58;;
25169;SDS011;13129;48.012;10.352;2023-04-15T06:08:56;2.05;;;1.55;;
25169;SDS011;13129;48.012;10.352;2023-04-15T06:11:22;2.08;;;1.63;;
25169;SDS011;13129;48.012;10.352;2023-04-15T06:13:48;4.47;;;1.70;;
25169;SDS011;13129;48.012;10.352;2023-04-15T06:16:14;2.30;;;1.50;;
25169;SDS011;13129;48.012;10.352;2023-04-15T06:18:39;3.22;;;2.80;;
25169;SDS011;13129;48.012;10.352;2023-04-15T06:21:05;3.28;;;1.85;;
25169;SDS011;13129;48.012;10.352;2023-04-15T06:23:33;2.42;;;1.80;;
25169;SDS011;13129;48.012;10.352;2023-04-15T06:26:00;2.47;;;1.80;;
25169;SDS011;13129;48.012;10.352;2023-04-15T06:28:26;2.60;;;1.80;;
25169;SDS011;13129;48.012;10.352;2023-04-15T06:30:52;3.22;;;1.80;;
25169;SDS011;13129;48.012;10.352;2023-04-15T06:33:18;1.85;;;1.35;;
25169;SDS011;13129;48.012;10.352;2023-04-15T06:35:44;3.20;;;2.83;;
25169;SDS011;13129;48.012;10.352;2023-04-15T06:38:11;2.88;;;2.50;;
25169;SDS011;13129;48.012;10.352;2023-04-15T06:40:38;4.00;;;2.65;;
25169;SDS011;13129;48.012;10.352;2023-04-15T06:43:04;2.75;;;2.00;;
25169;SDS011;13129;48.012;10.352;2023-04-15T06:45:29;3.88;;;1.80;;
25169;SDS011;13129;48.012;10.352;2023-04-15T06:47:56;1.80;;;1.70;;
25169;SDS011;13129;48.012;10.352;2023-04-15T06:50:21;1.95;;;1.33;;
25169;SDS011;13129;48.012;10.352;2023-04-15T06:52:47;2.13;;;1.40;;
25169;SDS011;13129;48.012;10.352;2023-04-15T06:55:13;4.28;;;1.25;;
25169;SDS011;13129;48.012;10.352;2023-04-15T06:57:38;1.98;;;1.23;;
25169;SDS011;13129;48.012;10.352;2023-04-15T07:00:05;2.05;;;1.85;;
25169;SDS011;13129;48.012;10.352;2023-04-15T07:02:31;2.05;;;1.20;;
25169;SDS011;13129;48.012;10.352;2023-04-15T07:04:57;1.77;;;1.63;;
25169;SDS011;13129;48.012;10.352;2023-04-15T07:07:23;2.05;;;1.30;;
25169;SDS011;13129;48.012;10.352;2023-04-15T07:09:49;2.13;;;1.17;;
25169;SDS011;13129;48.012;10.352;2023-04-15T07:12:17;2.58;;;1.23;;
25169;SDS011;13129;48.012;10.352;2023-04-15T07:14:43;1.80;;;1.45;;
25169;SDS011;13129;48.012;10.352;2023-04-15T07:17:09;2.05;;;1.40;;
25169;SDS011;13129;48.012;10.352;2023-04-15T07:19:35;2.05;;;1.42;;
25169;SDS011;13129;48.012;10.352;2023-04-15T07:22:01;1.85;;;1.75;;
25169;SDS011;13129;48.012;10.352;2023-04-15T07:24:27;1.75;;;1.60;;
25169;SDS011;13129;48.012;10.352;2023-04-15T07:26:53;2.78;;;2.25;;
25169;SDS011;13129;48.012;10.352;2023-04-15T07:29:21;2.33;;;2.13;;
25169;SDS011;13129;48.012;10.352;2023-04-15T07:31:47;3.95;;;3.00;;
25169;SDS011;13129;48.012;10.352;2023-04-15T07:34:13;2.42;;;1.60;;
25169;SDS011;13129;48.012;10.352;2023-04-15T07:36:38;1.83;;;1.42;;
25169;SDS011;13129;48.012;10.352;2023-04-15T07:39:04;1.50;;;1.40;;
25169;SDS011;13129;48.012;10.352;2023-04-15T07:41:30;2.08;;;1.58;;
25169;SDS011;13129;48.012;10.352;2023-04-15T07:43:56;2.25;;;1.48;;
25169;SDS011;13129;48.012;10.352;2023-04-15T07:46:21;3.05;;;2.13;;
25169;SDS011;13129;48.012;10.352;2023-04-15T07:48:48;3.85;;;2.97;;
25169;SDS011;13129;48.012;10.352;2023-04-15T07:51:14;2.22;;;1.60;;
25169;SDS011;13129;48.012;10.352;2023-04-15T07:53:41;1.80;;;1.50;;
25169;SDS011;13129;48.012;10.352;2023-04-15T07:56:08;1.65;;;1.45;;
25169;SDS011;13129;48.012;10.352;2023-04-15T07:58:34;1.80;;;1.67;;
25169;SDS011;13129;48.012;10.352;2023-04-15T08:01:00;4.32;;;3.03;;
25169;SDS011;13129;48.012;10.352;2023-04-15T08:03:26;2.95;;;2.63;;
25169;SDS011;13129;48.012;10.352;2023-04-15T08:05:52;2.53;;;2.00;;
25169;SDS011;13129;48.012;10.352;2023-04-15T08:08:18;4.57;;;3.00;;
25169;SDS011;13129;48.012;10.352;2023-04-15T08:10:44;2.80;;;1.50;;
25169;SDS011;13129;48.012;10.352;2023-04-15T08:13:09;3.42;;;1.80;;
25169;SDS011;13129;48.012;10.352;2023-04-15T08:15:35;2.40;;;1.63;;
25169;SDS011;13129;48.012;10.352;2023-04-15T08:18:02;3.63;;;1.63;;
25169;SDS011;13129;48.012;10.352;2023-04-15T08:20:27;3.67;;;1.50;;
25169;SDS011;13129;48.012;10.352;2023-04-15T08:22:54;3.45;;;1.70;;
25169;SDS011;13129;48.012;10.352;2023-04-15T08:25:20;2.08;;;1.70;;
25169;SDS011;13129;48.012;10.352;2023-04-15T08:27:46;1.63;;;1.30;;
25169;SDS011;13129;48.012;10.352;2023-04-15T08:30:11;1.95;;;1.38;;
25169;SDS011;13129;48.012;10.352;2023-04-15T08:32:37;2.15;;;1.50;;
25169;SDS011;13129;48.012;10.352;2023-04-15T08:35:03;3.97;;;2.45;;
25169;SDS011;13129;48.012;10.352;2023-04-15T08:37:29;3.28;;;1.75;;
25169;SDS011;13129;48.012;10.352;2023-04-15T08:39:58;2.65;;;1.70;;
25169;SDS011;13129;48.012;10.352;2023-04-15T08:42:26;2.22;;;2.03;;
25169;SDS011;13129;48.012;10.352;2023-04-15T08:44:57;2.88;;;1.63;;
25169;SDS011;13129;48.012;10.352;2023-04-15T08:47:25;3.15;;;1.55;;
25169;SDS011;13129;48.012;10.352;2023-04-15T08:49:55;1.65;;;1.35;;
25169;SDS011;13129;48.012;10.352;2023-04-15T08:52:23;2.92;;;1.60;;
25169;SDS011;13129;48.012;10.352;2023-04-15T08:54:56;3.63;;;1.60;;
25169;SDS011;13129;48.012;10.352;2023-04-15T08:57:25;2.17;;;1.40;;
25169;SDS011;13129;48.012;10.352;2023-04-15T08:59:53;3.83;;;1.40;;
25169;SDS011;13129;48.012;10.352;2023-04-15T09:02:20;1.83;;;1.73;;
25169;SDS011;13129;48.012;10.352;2023-04-15T09:04:47;2.55;;;1.52;;
25169;SDS011;13129;48.012;10.352;2023-04-15T09:07:12;1.83;;;1.50;;
25169;SDS011;13129;48.012;10.352;2023-04-15T09:09:38;2.65;;;1.48;;
25169;SDS011;13129;48.012;10.352;2023-04-15T09:12:06;3.22;;;2.08;;
25169;SDS011;13129;48.012;10.352;2023-04-15T09:14:32;3.25;;;1.90;;
25169;SDS011;13129;48.012;10.352;2023-04-15T09:16:59;2.88;;;1.90;;
25169;SDS011;13129;48.012;10.352;2023-04-15T09:19:26;3.40;;;1.70;;
25169;SDS011;13129;48.012;10.352;2023-04-15T09:21:53;3.75;;;2.08;;
25169;SDS011;13129;48.012;10.352;2023-04-15T09:24:22;2.40;;;1.70;;
25169;SDS011;13129;48.012;10.352;2023-04-15T09:26:53;3.45;;;1.88;;
25169;SDS011;13129;48.012;10.352;2023-04-15T09:29:23;3.47;;;1.60;;
25169;SDS011;13129;48.012;10.352;2023-04-15T09:31:50;2.35;;;1.92;;
25169;SDS011;13129;48.012;10.352;2023-04-15T09:34:16;2.10;;;1.90;;
25169;SDS011;13129;48.012;10.352;2023-04-15T09:39:11;2.55;;;2.22;;
25169;SDS011;13129;48.012;10.352;2023-04-15T09:41:38;2.25;;;1.90;;
25169;SDS011;13129;48.012;10.352;2023-04-15T09:44:04;4.07;;;2.05;;
25169;SDS011;13129;48.012;10.352;2023-04-15T09:46:40;2.35;;;1.95;;
25169;SDS011;13129;48.012;10.352;2023-04-15T09:49:07;2.60;;;2.03;;
25169;SDS011;13129;48.012;10.352;2023-04-15T09:51:34;2.38;;;1.77;;
25169;SDS011;13129;48.012;10.352;2023-04-15T09:54:00;3.70;;;1.73;;
25169;SDS011;13129;48.012;10.352;2023-04-15T09:56:36;2.67;;;2.20;;
25169;SDS011;13129;48.012;10.352;2023-04-15T09:59:05;7.38;;;2.60;;
25169;SDS011;13129;48.012;10.352;2023-04-15T10:01:31;3.58;;;2.10;;
25169;SDS011;13129;48.012;10.352;2023-04-15T10:03:57;3.67;;;2.35;;
25169;SDS011;13129;48.012;10.352;2023-04-15T10:06:24;3.05;;;2.17;;
25169;SDS011;13129;48.012;10.352;2023-04-15T10:08:50;3.83;;;2.10;;
25169;SDS011;13129;48.012;10.352;2023-04-15T10:11:17;2.70;;;1.90;;
25169;SDS011;13129;48.012;10.352;2023-04-15T10:13:44;2.92;;;1.77;;
25169;SDS011;13129;48.012;10.352;2023-04-15T10:16:12;3.30;;;1.88;;
25169;SDS011;13129;48.012;10.352;2023-04-15T10:18:41;4.15;;;1.80;;
25169;SDS011;13129;48.012;10.352;2023-04-15T10:21:08;2.75;;;1.67;;
25169;SDS011;13129;48.012;10.352;2023-04-15T10:23:35;2.53;;;1.60;;
25169;SDS011;13129;48.012;10.352;2023-04-15T10:26:03;1.77;;;1.67;;
25169;SDS011;13129;48.012;10.352;2023-04-15T10:28:28;2.75;;;1.90;;
25169;SDS011;13129;48.012;10.352;2023-04-15T10:30:54;3.78;;;1.60;;
25169;SDS011;13129;48.012;10.352;2023-04-15T10:33:21;2.45;;;1.52;;
25169;SDS011;13129;48.012;10.352;2023-04-15T10:35:49;3.75;;;1.90;;
25169;SDS011;13129;48.012;10.352;2023-04-15T10:41:18;2.35;;;1.63;;
25169;SDS011;13129;48.012;10.352;2023-04-15T10:43:53;4.00;;;2.10;;
25169;SDS011;13129;48.012;10.352;2023-04-15T10:46:23;2.38;;;2.03;;
25169;SDS011;13129;48.012;10.352;2023-04-15T10:49:06;4.13;;;2.10;;
25169;SDS011;13129;48.012;10.352;2023-04-15T10:51:40;2.40;;;2.20;;
25169;SDS011;13129;48.012;10.352;2023-04-15T10:54:08;1.92;;;1.77;;
25169;SDS011;13129;48.012;10.352;2023-04-15T10:56:41;3.00;;;2.28;;
25169;SDS011;13129;48.012;10.352;2023-04-15T10:59:08;2.88;;;1.90;;
25169;SDS011;13129;48.012;10.352;2023-04-15T11:01:50;3.85;;;1.95;;
25169;SDS011;13129;48.012;10.352;2023-04-15T11:09:59;2.75;;;2.00;;
25169;SDS011;13129;48.012;10.352;2023-04-15T11:12:35;2.97;;;2.30;;
25169;SDS011;13129;48.012;10.352;2023-04-15T11:18:10;5.00;;;2.20;;
25169;SDS011;13129;48.012;10.352;2023-04-15T11:20:44;3.78;;;1.80;;
25169;SDS011;13129;48.012;10.352;2023-04-15T11:26:06;3.38;;;2.20;;
25169;SDS011;13129;48.012;10.352;2023-04-15T11:28:39;3.45;;;2.33;;
25169;SDS011;13129;48.012;10.352;2023-04-15T11:31:08;3.50;;;2.00;;
25169;SDS011;13129;48.012;10.352;2023-04-15T11:33:43;3.08;;;1.98;;
25169;SDS011;13129;48.012;10.352;2023-04-15T11:36:10;3.45;;;2.35;;
25169;SDS011;13129;48.012;10.352;2023-04-15T11:38:36;3.28;;;2.47;;
25169;SDS011;13129;48.012;10.352;2023-04-15T11:41:06;2.30;;;1.85;;
25169;SDS011;13129;48.012;10.352;2023-04-15T11:43:32;4.88;;;2.10;;
25169;SDS011;13129;48.012;10.352;2023-04-15T11:46:00;3.80;;;2.28;;
25169;SDS011;13129;48.012;10.352;2023-04-15T11:48:28;6.28;;;2.42;;
25169;SDS011;13129;48.012;10.352;2023-04-15T11:50:58;3.85;;;1.92;;
25169;SDS011;13129;48.012;10.352;2023-04-15T11:56:10;4.50;;;3.90;;
25169;SDS011;13129;48.012;10.352;2023-04-15T11:58:41;6.68;;;4.13;;
25169;SDS011;13129;48.012;10.352;2023-04-15T12:01:07;5.68;;;4.53;;
25169;SDS011;13129;48.012;10.352;2023-04-15T12:06:07;4.32;;;3.92;;
25169;SDS011;13129;48.012;10.352;2023-04-15T12:13:53;4.40;;;3.97;;
25169;SDS011;13129;48.012;10.352;2023-04-15T12:16:26;4.70;;;4.30;;
25169;SDS011;13129;48.012;10.352;2023-04-15T12:18:53;3.97;;;3.55;;
25169;SDS011;13129;48.012;10.352;2023-04-15T12:21:24;4.38;;;3.95;;
25169;SDS011;13129;48.012;10.352;2023-04-15T12:23:52;8.15;;;4.43;;
25169;SDS011;13129;48.012;10.352;2023-04-15T12:26:25;5.93;;;4.32;;
25169;SDS011;13129;48.012;10.352;2023-04-15T12:29:03;6.20;;;4.90;;
25169;SDS011;13129;48.012;10.352;2023-04-15T12:31:29;10.85;;;7.35;;
25169;SDS011;13129;48.012;10.352;2023-04-15T12:33:56;24.15;;;14.88;;
25169;SDS011;13129;48.012;10.352;2023-04-15T12:36:22;8.13;;;6.40;;
25169;SDS011;13129;48.012;10.352;2023-04-15T12:38:48;5.88;;;5.32;;
25169;SDS011;13129;48.012;10.352;2023-04-15T12:41:13;5.78;;;5.10;;
25169;SDS011;13129;48.012;10.352;2023-04-15T12:43:39;5.25;;;4.75;;
25169;SDS011;13129;48.012;10.352;2023-04-15T12:46:06;6.28;;;5.03;;
25169;SDS011;13129;48.012;10.352;2023-04-15T12:48:32;5.22;;;4.18;;
25169;SDS011;13129;48.012;10.352;2023-04-15T12:50:58;5.50;;;4.45;;
25169;SDS011;13129;48.012;10.352;2023-04-15T12:53:24;5.85;;;5.35;;
25169;SDS011;13129;48.012;10.352;2023-04-15T12:55:50;13.40;;;7.82;;
25169;SDS011;13129;48.012;10.352;2023-04-15T12:58:16;5.07;;;4.57;;
25169;SDS011;13129;48.012;10.352;2023-04-15T13:00:42;39.63;;;15.45;;
25169;SDS011;13129;48.012;10.352;2023-04-15T13:03:08;9.38;;;6.30;;
25169;SDS011;13129;48.012;10.352;2023-04-15T13:05:34;7.22;;;5.07;;
25169;SDS011;13129;48.012;10.352;2023-04-15T13:08:01;7.05;;;5.28;;
25169;SDS011;13129;48.012;10.352;2023-04-15T13:10:28;6.00;;;5.00;;
25169;SDS011;13129;48.012;10.352;2023-04-15T13:12:53;5.75;;;4.80;;
25169;SDS011;13129;48.012;10.352;2023-04-15T13:15:21;4.38;;;4.07;;
25169;SDS011;13129;48.012;10.352;2023-04-15T13:17:49;5.25;;;4.85;;
25169;SDS011;13129;48.012;10.352;2023-04-15T13:20:15;6.82;;;4.68;;
25169;SDS011;13129;48.012;10.352;2023-04-15T13:22:41;8.23;;;7.55;;
25169;SDS011;13129;48.012;10.352;2023-04-15T13:25:07;15.65;;;9.23;;
25169;SDS011;13129;48.012;10.352;2023-04-15T13:27:33;5.07;;;4.20;;
25169;SDS011;13129;48.012;10.352;2023-04-15T13:29:59;4.85;;;4.20;;
25169;SDS011;13129;48.012;10.352;2023-04-15T13:32:25;5.28;;;4.88;;
25169;SDS011;13129;48.012;10.352;2023-04-15T13:34:50;5.65;;;4.72;;
25169;SDS011;13129;48.012;10.352;2023-04-15T13:37:16;6.60;;;5.28;;
25169;SDS011;13129;48.012;10.352;2023-04-15T13:39:42;10.15;;;4.93;;
25169;SDS011;13129;48.012;10.352;2023-04-15T13:42:07;12.15;;;9.05;;
25169;SDS011;13129;48.012;10.352;2023-04-15T13:44:37;7.80;;;5.38;;
25169;SDS011;13129;48.012;10.352;2023-04-15T13:47:03;7.10;;;6.32;;
25169;SDS011;13129;48.012;10.352;2023-04-15T13:49:29;5.65;;;5.05;;
25169;SDS011;13129;48.012;10.352;2023-04-15T13:51:54;6.75;;;5.60;;
25169;SDS011;13129;48.012;10.352;2023-04-15T13:54:20;6.32;;;5.30;;
25169;SDS011;13129;48.012;10.352;2023-04-15T13:56:46;5.72;;;5.13;;
25169;SDS011;13129;48.012;10.352;2023-04-15T13:59:11;6.80;;;5.55;;
25169;SDS011;13129;48.012;10.352;2023-04-15T14:01:37;5.78;;;5.28;;
25169;SDS011;13129;48.012;10.352;2023-04-15T14:04:05;5.63;;;4.80;;
25169;SDS011;13129;48.012;10.352;2023-04-15T14:06:30;7.15;;;5.13;;
25169;SDS011;13129;48.012;10.352;2023-04-15T14:08:56;5.78;;;5.10;;
25169;SDS011;13129;48.012;10.352;2023-04-15T14:11:22;5.85;;;5.25;;
25169;SDS011;13129;48.012;10.352;2023-04-15T14:13:47;5.28;;;4.75;;
25169;SDS011;13129;48.012;10.352;2023-04-15T14:16:13;5.78;;;4.55;;
25169;SDS011;13129;48.012;10.352;2023-04-15T14:18:39;6.25;;;5.22;;
25169;SDS011;13129;48.012;10.352;2023-04-15T14:21:04;7.55;;;6.82;;
25169;SDS011;13129;48.012;10.352;2023-04-15T14:23:31;7.53;;;6.78;;
25169;SDS011;13129;48.012;10.352;2023-04-15T14:25:56;15.15;;;10.88;;
25169;SDS011;13129;48.012;10.352;2023-04-15T14:28:23;12.57;;;11.30;;
25169;SDS011;13129;48.012;10.352;2023-04-15T14:30:48;7.60;;;6.80;;
25169;SDS011;13129;48.012;10.352;2023-04-15T14:33:14;6.90;;;6.20;;
25169;SDS011;13129;48.012;10.352;2023-04-15T14:35:40;6.25;;;5.65;;
25169;SDS011;13129;48.012;10.352;2023-04-15T14:38:06;8.30;;;4.85;;
25169;SDS011;13129;48.012;10.352;2023-04-15T14:40:34;5.70;;;5.05;;
25169;SDS011;13129;48.012;10.352;2023-04-15T14:43:00;7.82;;;5.00;;
25169;SDS011;13129;48.012;10.352;2023-04-15T14:45:25;5.63;;;4.85;;
25169;SDS011;13129;48.012;10.352;2023-04-15T14:47:51;6.15;;;5.13;;
25169;SDS011;13129;48.012;10.352;2023-04-15T14:50:17;7.30;;;6.10;;
25169;SDS011;13129;48.012;10.352;2023-04-15T14:52:43;6.30;;;5.70;;
25169;SDS011;13129;48.012;10.352;2023-04-15T14:55:09;7.85;;;5.97;;
25169;SDS011;13129;48.012;10.352;2023-04-15T14:57:36;6.05;;;5.22;;
25169;SDS011;13129;48.012;10.352;2023-04-15T15:00:03;6.18;;;5.55;;
25169;SDS011;13129;48.012;10.352;2023-04-15T15:02:31;7.15;;;6.20;;
25169;SDS011;13129;48.012;10.352;2023-04-15T15:04:57;7.55;;;6.72;;
25169;SDS011;13129;48.012;10.352;2023-04-15T15:07:25;6.65;;;5.57;;
25169;SDS011;13129;48.012;10.352;2023-04-15T15:09:51;8.55;;;6.75;;
25169;SDS011;13129;48.012;10.352;2023-04-15T15:12:17;6.95;;;5.45;;
25169;SDS011;13129;48.012;10.352;2023-04-15T15:14:43;7.00;;;6.35;;
25169;SDS011;13129;48.012;10.352;2023-04-15T15:17:08;8.18;;;7.28;;
25169;SDS011;13129;48.012;10.352;2023-04-15T15:19:34;11.10;;;9.70;;
25169;SDS011;13129;48.012;10.352;2023-04-15T15:22:00;8.73;;;7.82;;
25169;SDS011;13129;48.012;10.352;2023-04-15T15:24:27;13.30;;;10.80;;
25169;SDS011;13129;48.012;10.352;2023-04-15T15:26:53;9.93;;;8.20;;
25169;SDS011;13129;48.012;10.352;2023-04-15T15:29:18;10.98;;;9.38;;
25169;SDS011;13129;48.012;10.352;2023-04-15T15:31:44;14.23;;;10.98;;
25169;SDS011;13129;48.012;10.352;2023-04-15T15:34:09;12.07;;;10.68;;
25169;SDS011;13129;48.012;10.352;2023-04-15T15:36:35;15.00;;;10.57;;
25169;SDS011;13129;48.012;10.352;2023-04-15T15:39:01;10.88;;;9.77;;
25169;SDS011;13129;48.012;10.352;2023-04-15T15:41:27;10.27;;;9.23;;
25169;SDS011;13129;48.012;10.352;2023-04-15T15:43:52;11.35;;;9.70;;
25169;SDS011;13129;48.012;10.352;2023-04-15T15:46:18;9.60;;;8.80;;
25169;SDS011;13129;48.012;10.352;2023-04-15T15:48:44;10.02;;;8.93;;
25169;SDS011;13129;48.012;10.352;2023-04-15T15:51:10;11.60;;;8.60;;
25169;SDS011;13129;48.012;10.352;2023-04-15T15:53:36;10.65;;;9.07;;
25169;SDS011;13129;48.012;10.352;2023-04-15T15:56:02;10.18;;;8.20;;
25169;SDS011;13129;48.012;10.352;2023-04-15T15:58:29;9.13;;;8.20;;
25169;SDS011;13129;48.012;10.352;2023-04-15T16:00:55;10.30;;;8.32;;
25169;SDS011;13129;48.012;10.352;2023-04-15T16:03:21;9.35;;;7.35;;
25169;SDS011;13129;48.012;10.352;2023-04-15T16:05:47;12.48;;;8.82;;
25169;SDS011;13129;48.012;10.352;2023-04-15T16:08:13;11.88;;;8.35;;
25169;SDS011;13129;48.012;10.352;2023-04-15T16:10:39;9.75;;;7.68;;
25169;SDS011;13129;48.012;10.352;2023-04-15T16:13:05;22.85;;;12.63;;
25169;SDS011;13129;48.012;10.352;2023-04-15T16:15:31;8.07;;;5.78;;
25169;SDS011;13129;48.012;10.352;2023-04-15T16:17:58;6.63;;;6.03;;
25169;SDS011;13129;48.012;10.352;2023-04-15T16:20:24;5.35;;;4.15;;
25169;SDS011;13129;48.012;10.352;2023-04-15T16:22:49;5.40;;;4.90;;
25169;SDS011;13129;48.012;10.352;2023-04-15T16:25:15;5.50;;;5.00;;
25169;SDS011;13129;48.012;10.352;2023-04-15T16:27:41;6.47;;;5.57;;
25169;SDS011;13129;48.012;10.352;2023-04-15T16:30:08;6.03;;;4.35;;
25169;SDS011;13129;48.012;10.352;2023-04-15T16:32:34;5.95;;;4.78;;
25169;SDS011;13129;48.012;10.352;2023-04-15T16:35:01;5.40;;;4.60;;
25169;SDS011;13129;48.012;10.352;2023-04-15T16:37:27;4.80;;;4.15;;
25169;SDS011;13129;48.012;10.352;2023-04-15T16:39:53;6.35;;;4.65;;
25169;SDS011;13129;48.012;10.352;2023-04-15T16:42:19;6.13;;;5.53;;
25169;SDS011;13129;48.012;10.352;2023-04-15T16:44:45;6.30;;;4.95;;
25169;SDS011;13129;48.012;10.352;2023-04-15T16:47:10;4.95;;;4.55;;
25169;SDS011;13129;48.012;10.352;2023-04-15T16:49:36;7.30;;;6.55;;
25169;SDS011;13129;48.012;10.352;2023-04-15T16:52:02;6.60;;;5.40;;
25169;SDS011;13129;48.012;10.352;2023-04-15T16:54:28;4.90;;;4.47;;
25169;SDS011;13129;48.012;10.352;2023-04-15T16:56:54;4.97;;;4.13;;
25169;SDS011;13129;48.012;10.352;2023-04-15T16:59:22;7.20;;;5.10;;
25169;SDS011;13129;48.012;10.352;2023-04-15T17:01:49;4.95;;;4.55;;
25169;SDS011;13129;48.012;10.352;2023-04-15T17:04:14;4.60;;;4.20;;
25169;SDS011;13129;48.012;10.352;2023-04-15T17:06:40;5.28;;;4.32;;
25169;SDS011;13129;48.012;10.352;2023-04-15T17:09:06;4.78;;;4.32;;
25169;SDS011;13129;48.012;10.352;2023-04-15T17:11:31;5.85;;;4.80;;
25169;SDS011;13129;48.012;10.352;2023-04-15T17:13:59;6.25;;;4.30;;
25169;SDS011;13129;48.012;10.352;2023-04-15T17:16:26;6.63;;;5.05;;
25169;SDS011;13129;48.012;10.352;2023-04-15T17:18:52;7.88;;;6.40;;
25169;SDS011;13129;48.012;10.352;2023-04-15T17:21:17;8.48;;;6.13;;
25169;SDS011;13129;48.012;10.352;2023-04-15T17:23:43;8.57;;;7.57;;
25169;SDS011;13129;48.012;10.352;2023-04-15T17:26:09;9.57;;;8.15;;
25169;SDS011;13129;48.012;10.352;2023-04-15T17:28:35;12.00;;;10.00;;
25169;SDS011;13129;48.012;10.352;2023-04-15T17:31:01;6.78;;;6.07;;
25169;SDS011;13129;48.012;10.352;2023-04-15T17:33:27;6.53;;;5.50;;
25169;SDS011;13129;48.012;10.352;2023-04-15T17:35:53;6.70;;;6.20;;
25169;SDS011;13129;48.012;10.352;2023-04-15T17:38:19;7.72;;;6.75;;
25169;SDS011;13129;48.012;10.352;2023-04-15T17:40:44;7.00;;;5.85;;
25169;SDS011;13129;48.012;10.352;2023-04-15T17:43:10;6.13;;;5.63;;
25169;SDS011;13129;48.012;10.352;2023-04-15T17:45:35;7.20;;;6.35;;
25169;SDS011;13129;48.012;10.352;2023-04-15T17:48:01;6.43;;;5.82;;
25169;SDS011;13129;48.012;10.352;2023-04-15T17:50:27;7.65;;;6.57;;
25169;SDS011;13129;48.012;10.352;2023-04-15T17:52:53;9.35;;;7.03;;
25169;SDS011;13129;48.012;10.352;2023-04-15T17:55:19;30.73;;;26.30;;
25169;SDS011;13129;48.012;10.352;2023-04-15T17:57:46;9.80;;;8.70;;
25169;SDS011;13129;48.012;10.352;2023-04-15T18:00:11;8.85;;;7.85;;
25169;SDS011;13129;48.012;10.352;2023-04-15T18:02:38;8.15;;;7.43;;
25169;SDS011;13129;48.012;10.352;2023-04-15T18:05:04;10.02;;;7.32;;
25169;SDS011;13129;48.012;10.352;2023-04-15T18:07:30;9.75;;;8.38;;
25169;SDS011;13129;48.012;10.352;2023-04-15T18:09:55;11.35;;;8.02;;
25169;SDS011;13129;48.012;10.352;2023-04-15T18:12:21;9.38;;;6.97;;
25169;SDS011;13129;48.012;10.352;2023-04-15T18:14:47;9.32;;;6.40;;
25169;SDS011;13129;48.012;10.352;2023-04-15T18:17:12;7.32;;;6.10;;
25169;SDS011;13129;48.012;10.352;2023-04-15T18:19:38;7.25;;;6.43;;
25169;SDS011;13129;48.012;10.352;2023-04-15T18:22:05;8.48;;;6.03;;
25169;SDS011;13129;48.012;10.352;2023-04-15T18:24:31;7.20;;;6.45;;
25169;SDS011;13129;48.012;10.352;2023-04-15T18:26:57;9.40;;;5.15;;